sensor_id;sensor_type;location;lat;lon;timestamp;P1;durP1;ratioP1;P2;durP2;ratioP2
21581;SDS011;10952;50.836;4.348;2022-12-18T00:00:50;34.17;;;16.37;;
21581;SDS011;10952;50.836;4.348;2022-12-18T00:03:21;34.87;;;17.57;;
21581;SDS011;10952;50.836;4.348;2022-12-18T00:08:35;33.97;;;16.53;;
21581;SDS011;10952;50.836;4.348;2022-12-18T00:11:04;38.03;;;18.40;;
21581;SDS011;10952;50.836;4.348;2022-12-18T00:13:43;35.87;;;17.37;;
21581;SDS011;10952;50.836;4.348;2022-12-18T00:16:13;41.30;;;18.30;;
21581;SDS011;10952;50.836;4.348;2022-12-18T00:18:40;34.00;;;16.67;;
21581;SDS011;10952;50.836;4.348;2022-12-18T00:21:18;36.07;;;16.63;;
21581;SDS011;10952;50.836;4.348;2022-12-18T00:24:01;35.30;;;16.40;;
21581;SDS011;10952;50.836;4.348;2022-12-18T00:26:32;37.40;;;17.17;;
21581;SDS011;10952;50.836;4.348;2022-12-18T00:28:59;32.83;;;16.40;;
21581;SDS011;10952;50.836;4.348;2022-12-18T00:31:26;33.60;;;16.33;;
21581;SDS011;10952;50.836;4.348;2022-12-18T00:33:56;35.70;;;16.80;;
21581;SDS011;10952;50.836;4.348;2022-12-18T00:36:29;36.90;;;16.10;;
21581;SDS011;10952;50.836;4.348;2022-12-18T00:39:01;30.23;;;15.40;;
21581;SDS011;10952;50.836;4.348;2022-12-18T00:41:30;31.80;;;15.47;;
21581;SDS011;10952;50.836;4.348;2022-12-18T00:44:25;33.90;;;17.30;;
21581;SDS011;10952;50.836;4.348;2022-12-18T00:46:52;32.23;;;15.43;;
21581;SDS011;10952;50.836;4.348;2022-12-18T00:49:21;32.60;;;16.87;;
21581;SDS011;10952;50.836;4.348;2022-12-18T00:51:55;30.57;;;15.80;;
21581;SDS011;10952;50.836;4.348;2022-12-18T00:54:22;27.63;;;16.13;;
21581;SDS011;10952;50.836;4.348;2022-12-18T00:57:06;34.33;;;16.23;;
21581;SDS011;10952;50.836;4.348;2022-12-18T00:59:40;31.30;;;15.30;;
21581;SDS011;10952;50.836;4.348;2022-12-18T01:02:07;25.27;;;13.50;;
21581;SDS011;10952;50.836;4.348;2022-12-18T01:07:13;25.93;;;13.30;;
21581;SDS011;10952;50.836;4.348;2022-12-18T01:09:57;27.70;;;13.40;;
21581;SDS011;10952;50.836;4.348;2022-12-18T01:12:37;28.60;;;13.40;;
21581;SDS011;10952;50.836;4.348;2022-12-18T01:15:12;28.73;;;13.07;;
21581;SDS011;10952;50.836;4.348;2022-12-18T01:17:45;26.17;;;12.10;;
21581;SDS011;10952;50.836;4.348;2022-12-18T01:20:12;24.07;;;11.80;;
21581;SDS011;10952;50.836;4.348;2022-12-18T01:22:39;22.43;;;11.27;;
21581;SDS011;10952;50.836;4.348;2022-12-18T01:25:10;19.73;;;10.63;;
21581;SDS011;10952;50.836;4.348;2022-12-18T01:27:36;21.43;;;11.57;;
21581;SDS011;10952;50.836;4.348;2022-12-18T01:30:02;25.27;;;12.33;;
21581;SDS011;10952;50.836;4.348;2022-12-18T01:32:29;27.50;;;12.83;;
21581;SDS011;10952;50.836;4.348;2022-12-18T01:34:59;22.90;;;11.80;;
21581;SDS011;10952;50.836;4.348;2022-12-18T01:37:26;22.87;;;11.60;;
21581;SDS011;10952;50.836;4.348;2022-12-18T01:39:54;22.13;;;11.60;;
21581;SDS011;10952;50.836;4.348;2022-12-18T01:45:03;22.77;;;11.63;;
21581;SDS011;10952;50.836;4.348;2022-12-18T01:55:50;21.10;;;11.07;;
21581;SDS011;10952;50.836;4.348;2022-12-18T01:58:19;23.13;;;11.17;;
21581;SDS011;10952;50.836;4.348;2022-12-18T02:00:49;22.67;;;10.87;;
21581;SDS011;10952;50.836;4.348;2022-12-18T02:03:14;22.47;;;10.63;;
21581;SDS011;10952;50.836;4.348;2022-12-18T02:10:56;19.60;;;9.60;;
21581;SDS011;10952;50.836;4.348;2022-12-18T02:13:48;20.53;;;10.57;;
21581;SDS011;10952;50.836;4.348;2022-12-18T02:19:06;19.60;;;10.13;;
21581;SDS011;10952;50.836;4.348;2022-12-18T02:21:57;26.20;;;10.70;;
21581;SDS011;10952;50.836;4.348;2022-12-18T02:27:25;18.80;;;10.37;;
21581;SDS011;10952;50.836;4.348;2022-12-18T02:29:55;19.13;;;10.37;;
21581;SDS011;10952;50.836;4.348;2022-12-18T02:32:37;20.63;;;9.93;;
21581;SDS011;10952;50.836;4.348;2022-12-18T02:35:08;23.50;;;11.67;;
21581;SDS011;10952;50.836;4.348;2022-12-18T02:37:40;18.40;;;9.57;;
21581;SDS011;10952;50.836;4.348;2022-12-18T02:40:14;23.47;;;10.20;;
21581;SDS011;10952;50.836;4.348;2022-12-18T02:42:45;20.27;;;10.17;;
21581;SDS011;10952;50.836;4.348;2022-12-18T02:45:16;22.00;;;11.27;;
21581;SDS011;10952;50.836;4.348;2022-12-18T02:50:29;21.50;;;10.70;;
21581;SDS011;10952;50.836;4.348;2022-12-18T02:53:17;22.87;;;9.67;;
21581;SDS011;10952;50.836;4.348;2022-12-18T03:04:47;23.37;;;10.80;;
21581;SDS011;10952;50.836;4.348;2022-12-18T03:10:26;17.63;;;9.00;;
21581;SDS011;10952;50.836;4.348;2022-12-18T03:15:41;23.10;;;10.33;;
21581;SDS011;10952;50.836;4.348;2022-12-18T03:18:16;20.37;;;9.53;;
21581;SDS011;10952;50.836;4.348;2022-12-18T03:23:21;22.13;;;10.87;;
21581;SDS011;10952;50.836;4.348;2022-12-18T03:25:50;20.33;;;9.60;;
21581;SDS011;10952;50.836;4.348;2022-12-18T03:28:20;23.30;;;9.77;;
21581;SDS011;10952;50.836;4.348;2022-12-18T03:30:52;21.67;;;10.23;;
21581;SDS011;10952;50.836;4.348;2022-12-18T03:33:26;22.87;;;10.10;;
21581;SDS011;10952;50.836;4.348;2022-12-18T03:36:05;18.50;;;9.20;;
21581;SDS011;10952;50.836;4.348;2022-12-18T03:41:06;18.23;;;9.03;;
21581;SDS011;10952;50.836;4.348;2022-12-18T03:46:36;19.53;;;8.83;;
21581;SDS011;10952;50.836;4.348;2022-12-18T03:49:12;20.37;;;9.00;;
21581;SDS011;10952;50.836;4.348;2022-12-18T03:51:52;26.47;;;12.33;;
21581;SDS011;10952;50.836;4.348;2022-12-18T03:54:27;18.47;;;8.97;;
21581;SDS011;10952;50.836;4.348;2022-12-18T03:56:59;19.33;;;9.83;;
21581;SDS011;10952;50.836;4.348;2022-12-18T03:59:29;20.73;;;8.70;;
21581;SDS011;10952;50.836;4.348;2022-12-18T04:01:56;17.27;;;8.53;;
21581;SDS011;10952;50.836;4.348;2022-12-18T04:04:23;22.43;;;9.50;;
21581;SDS011;10952;50.836;4.348;2022-12-18T04:09:22;17.47;;;8.43;;
21581;SDS011;10952;50.836;4.348;2022-12-18T04:11:49;16.53;;;7.90;;
21581;SDS011;10952;50.836;4.348;2022-12-18T04:14:18;17.33;;;8.70;;
21581;SDS011;10952;50.836;4.348;2022-12-18T04:16:47;15.73;;;8.43;;
21581;SDS011;10952;50.836;4.348;2022-12-18T04:19:13;18.13;;;8.40;;
21581;SDS011;10952;50.836;4.348;2022-12-18T04:21:39;19.17;;;8.77;;
21581;SDS011;10952;50.836;4.348;2022-12-18T04:24:05;13.37;;;7.67;;
21581;SDS011;10952;50.836;4.348;2022-12-18T04:26:36;17.67;;;8.03;;
21581;SDS011;10952;50.836;4.348;2022-12-18T04:29:01;19.47;;;8.07;;
21581;SDS011;10952;50.836;4.348;2022-12-18T04:31:29;16.13;;;8.23;;
21581;SDS011;10952;50.836;4.348;2022-12-18T04:33:58;14.23;;;7.50;;
21581;SDS011;10952;50.836;4.348;2022-12-18T04:36:26;17.47;;;8.77;;
21581;SDS011;10952;50.836;4.348;2022-12-18T04:38:55;12.93;;;6.93;;
21581;SDS011;10952;50.836;4.348;2022-12-18T04:41:24;17.37;;;8.50;;
21581;SDS011;10952;50.836;4.348;2022-12-18T04:43:53;15.17;;;7.37;;
21581;SDS011;10952;50.836;4.348;2022-12-18T04:46:22;17.17;;;7.63;;
21581;SDS011;10952;50.836;4.348;2022-12-18T04:48:49;15.47;;;7.90;;
21581;SDS011;10952;50.836;4.348;2022-12-18T04:51:18;15.97;;;7.17;;
21581;SDS011;10952;50.836;4.348;2022-12-18T04:53:45;19.20;;;8.17;;
21581;SDS011;10952;50.836;4.348;2022-12-18T04:56:14;16.33;;;7.90;;
21581;SDS011;10952;50.836;4.348;2022-12-18T04:58:43;16.23;;;8.50;;
21581;SDS011;10952;50.836;4.348;2022-12-18T05:01:13;15.30;;;7.90;;
21581;SDS011;10952;50.836;4.348;2022-12-18T05:03:56;16.97;;;8.37;;
21581;SDS011;10952;50.836;4.348;2022-12-18T05:06:24;16.83;;;8.00;;
21581;SDS011;10952;50.836;4.348;2022-12-18T05:08:53;17.07;;;8.67;;
21581;SDS011;10952;50.836;4.348;2022-12-18T05:11:19;17.00;;;8.23;;
21581;SDS011;10952;50.836;4.348;2022-12-18T05:16:50;18.13;;;8.20;;
21581;SDS011;10952;50.836;4.348;2022-12-18T05:21:48;15.63;;;7.30;;
21581;SDS011;10952;50.836;4.348;2022-12-18T05:24:19;16.90;;;8.67;;
21581;SDS011;10952;50.836;4.348;2022-12-18T05:26:48;14.23;;;7.40;;
21581;SDS011;10952;50.836;4.348;2022-12-18T05:31:43;15.57;;;7.63;;
21581;SDS011;10952;50.836;4.348;2022-12-18T05:36:40;18.20;;;7.67;;
21581;SDS011;10952;50.836;4.348;2022-12-18T05:39:08;17.00;;;7.93;;
21581;SDS011;10952;50.836;4.348;2022-12-18T05:41:34;15.17;;;7.07;;
21581;SDS011;10952;50.836;4.348;2022-12-18T05:46:31;13.20;;;7.37;;
21581;SDS011;10952;50.836;4.348;2022-12-18T05:49:06;13.60;;;7.47;;
21581;SDS011;10952;50.836;4.348;2022-12-18T05:51:35;17.60;;;7.73;;
21581;SDS011;10952;50.836;4.348;2022-12-18T05:54:03;13.20;;;6.83;;
21581;SDS011;10952;50.836;4.348;2022-12-18T05:56:32;16.67;;;7.40;;
21581;SDS011;10952;50.836;4.348;2022-12-18T05:59:01;13.30;;;7.17;;
21581;SDS011;10952;50.836;4.348;2022-12-18T06:03:56;15.60;;;7.70;;
21581;SDS011;10952;50.836;4.348;2022-12-18T06:06:23;15.53;;;7.73;;
21581;SDS011;10952;50.836;4.348;2022-12-18T06:08:51;14.63;;;7.83;;
21581;SDS011;10952;50.836;4.348;2022-12-18T06:11:24;14.53;;;7.70;;
21581;SDS011;10952;50.836;4.348;2022-12-18T06:13:54;14.43;;;6.77;;
21581;SDS011;10952;50.836;4.348;2022-12-18T06:21:25;15.77;;;7.47;;
21581;SDS011;10952;50.836;4.348;2022-12-18T06:26:24;15.73;;;7.73;;
21581;SDS011;10952;50.836;4.348;2022-12-18T06:31:37;15.50;;;7.70;;
21581;SDS011;10952;50.836;4.348;2022-12-18T06:34:05;14.17;;;6.90;;
21581;SDS011;10952;50.836;4.348;2022-12-18T06:36:33;13.10;;;7.20;;
21581;SDS011;10952;50.836;4.348;2022-12-18T06:38:59;13.13;;;6.70;;
21581;SDS011;10952;50.836;4.348;2022-12-18T06:43:57;14.20;;;6.70;;
21581;SDS011;10952;50.836;4.348;2022-12-18T06:46:26;15.33;;;7.40;;
21581;SDS011;10952;50.836;4.348;2022-12-18T06:48:54;14.73;;;7.23;;
21581;SDS011;10952;50.836;4.348;2022-12-18T06:51:23;9.87;;;5.97;;
21581;SDS011;10952;50.836;4.348;2022-12-18T06:56:21;15.13;;;7.13;;
21581;SDS011;10952;50.836;4.348;2022-12-18T07:01:16;13.53;;;7.03;;
21581;SDS011;10952;50.836;4.348;2022-12-18T07:09:00;13.67;;;6.57;;
21581;SDS011;10952;50.836;4.348;2022-12-18T07:11:29;12.80;;;6.40;;
21581;SDS011;10952;50.836;4.348;2022-12-18T07:18:56;13.23;;;6.43;;
21581;SDS011;10952;50.836;4.348;2022-12-18T07:21:23;14.50;;;7.37;;
21581;SDS011;10952;50.836;4.348;2022-12-18T07:23:49;14.53;;;6.97;;
21581;SDS011;10952;50.836;4.348;2022-12-18T07:28:46;14.13;;;6.83;;
21581;SDS011;10952;50.836;4.348;2022-12-18T07:31:17;15.17;;;6.47;;
21581;SDS011;10952;50.836;4.348;2022-12-18T07:33:47;15.30;;;6.77;;
21581;SDS011;10952;50.836;4.348;2022-12-18T07:36:13;14.07;;;6.97;;
21581;SDS011;10952;50.836;4.348;2022-12-18T07:41:12;14.27;;;7.77;;
21581;SDS011;10952;50.836;4.348;2022-12-18T07:43:41;18.97;;;6.90;;
21581;SDS011;10952;50.836;4.348;2022-12-18T07:46:08;11.23;;;6.17;;
21581;SDS011;10952;50.836;4.348;2022-12-18T07:48:35;11.97;;;6.20;;
21581;SDS011;10952;50.836;4.348;2022-12-18T07:51:01;15.10;;;7.23;;
21581;SDS011;10952;50.836;4.348;2022-12-18T07:53:29;14.93;;;6.90;;
21581;SDS011;10952;50.836;4.348;2022-12-18T07:55:57;14.07;;;6.70;;
21581;SDS011;10952;50.836;4.348;2022-12-18T07:58:24;15.53;;;6.77;;
21581;SDS011;10952;50.836;4.348;2022-12-18T08:00:53;15.33;;;6.73;;
21581;SDS011;10952;50.836;4.348;2022-12-18T08:03:20;16.17;;;7.57;;
21581;SDS011;10952;50.836;4.348;2022-12-18T08:05:46;15.33;;;6.97;;
21581;SDS011;10952;50.836;4.348;2022-12-18T08:08:14;13.17;;;7.23;;
21581;SDS011;10952;50.836;4.348;2022-12-18T08:10:40;11.43;;;6.13;;
21581;SDS011;10952;50.836;4.348;2022-12-18T08:13:05;15.20;;;6.83;;
21581;SDS011;10952;50.836;4.348;2022-12-18T08:15:33;14.17;;;7.33;;
21581;SDS011;10952;50.836;4.348;2022-12-18T08:18:01;11.60;;;7.10;;
21581;SDS011;10952;50.836;4.348;2022-12-18T08:20:26;12.50;;;6.27;;
21581;SDS011;10952;50.836;4.348;2022-12-18T08:22:54;16.43;;;7.53;;
21581;SDS011;10952;50.836;4.348;2022-12-18T08:25:19;13.40;;;6.93;;
21581;SDS011;10952;50.836;4.348;2022-12-18T08:27:45;17.50;;;7.13;;
21581;SDS011;10952;50.836;4.348;2022-12-18T08:30:11;10.27;;;6.33;;
21581;SDS011;10952;50.836;4.348;2022-12-18T08:32:38;13.53;;;6.97;;
21581;SDS011;10952;50.836;4.348;2022-12-18T08:35:04;11.57;;;6.30;;
21581;SDS011;10952;50.836;4.348;2022-12-18T08:37:30;15.87;;;7.67;;
21581;SDS011;10952;50.836;4.348;2022-12-18T08:39:56;12.80;;;7.03;;
21581;SDS011;10952;50.836;4.348;2022-12-18T08:42:21;13.23;;;6.73;;
21581;SDS011;10952;50.836;4.348;2022-12-18T08:45:05;16.67;;;7.20;;
21581;SDS011;10952;50.836;4.348;2022-12-18T08:47:31;17.97;;;7.67;;
21581;SDS011;10952;50.836;4.348;2022-12-18T08:49:58;13.33;;;7.33;;
21581;SDS011;10952;50.836;4.348;2022-12-18T08:52:25;14.90;;;7.27;;
21581;SDS011;10952;50.836;4.348;2022-12-18T08:54:53;17.07;;;7.63;;
21581;SDS011;10952;50.836;4.348;2022-12-18T08:57:18;17.30;;;8.33;;
21581;SDS011;10952;50.836;4.348;2022-12-18T08:59:44;16.63;;;9.07;;
21581;SDS011;10952;50.836;4.348;2022-12-18T09:02:10;15.33;;;7.47;;
21581;SDS011;10952;50.836;4.348;2022-12-18T09:04:36;12.93;;;6.63;;
21581;SDS011;10952;50.836;4.348;2022-12-18T09:07:02;16.33;;;7.80;;
21581;SDS011;10952;50.836;4.348;2022-12-18T09:09:27;15.23;;;7.80;;
21581;SDS011;10952;50.836;4.348;2022-12-18T09:11:54;16.93;;;7.60;;
21581;SDS011;10952;50.836;4.348;2022-12-18T09:14:20;16.97;;;7.90;;
21581;SDS011;10952;50.836;4.348;2022-12-18T09:16:45;16.50;;;7.83;;
21581;SDS011;10952;50.836;4.348;2022-12-18T09:19:11;14.00;;;7.57;;
21581;SDS011;10952;50.836;4.348;2022-12-18T09:21:37;17.63;;;7.97;;
21581;SDS011;10952;50.836;4.348;2022-12-18T09:24:04;15.00;;;7.23;;
21581;SDS011;10952;50.836;4.348;2022-12-18T09:26:31;13.90;;;7.23;;
21581;SDS011;10952;50.836;4.348;2022-12-18T09:28:56;20.83;;;8.30;;
21581;SDS011;10952;50.836;4.348;2022-12-18T09:31:22;18.83;;;9.60;;
21581;SDS011;10952;50.836;4.348;2022-12-18T09:33:49;16.73;;;8.73;;
21581;SDS011;10952;50.836;4.348;2022-12-18T09:38:44;19.03;;;8.30;;
21581;SDS011;10952;50.836;4.348;2022-12-18T09:44:05;16.93;;;8.03;;
21581;SDS011;10952;50.836;4.348;2022-12-18T09:46:46;21.90;;;9.47;;
21581;SDS011;10952;50.836;4.348;2022-12-18T09:49:22;19.03;;;8.67;;
21581;SDS011;10952;50.836;4.348;2022-12-18T09:52:14;19.50;;;9.03;;
21581;SDS011;10952;50.836;4.348;2022-12-18T09:54:51;17.10;;;8.90;;
21581;SDS011;10952;50.836;4.348;2022-12-18T09:57:22;21.83;;;9.13;;
21581;SDS011;10952;50.836;4.348;2022-12-18T10:00:35;17.57;;;9.07;;
21581;SDS011;10952;50.836;4.348;2022-12-18T10:02:46;19.20;;;8.53;;
21581;SDS011;10952;50.836;4.348;2022-12-18T10:08:12;16.70;;;8.70;;
21581;SDS011;10952;50.836;4.348;2022-12-18T10:10:57;21.17;;;9.80;;
21581;SDS011;10952;50.836;4.348;2022-12-18T10:13:52;18.47;;;9.07;;
21581;SDS011;10952;50.836;4.348;2022-12-18T10:28:12;17.53;;;9.30;;
21581;SDS011;10952;50.836;4.348;2022-12-18T10:30:39;21.13;;;9.90;;
21581;SDS011;10952;50.836;4.348;2022-12-18T10:33:12;21.27;;;9.93;;
21581;SDS011;10952;50.836;4.348;2022-12-18T10:35:47;19.40;;;9.60;;
21581;SDS011;10952;50.836;4.348;2022-12-18T10:40:53;17.70;;;9.53;;
21581;SDS011;10952;50.836;4.348;2022-12-18T10:43:25;21.23;;;9.83;;
21581;SDS011;10952;50.836;4.348;2022-12-18T10:45:58;21.63;;;9.40;;
21581;SDS011;10952;50.836;4.348;2022-12-18T10:48:30;17.50;;;9.07;;
21581;SDS011;10952;50.836;4.348;2022-12-18T10:50:56;22.97;;;9.80;;
21581;SDS011;10952;50.836;4.348;2022-12-18T10:53:27;32.27;;;10.60;;
21581;SDS011;10952;50.836;4.348;2022-12-18T10:55:55;18.43;;;9.57;;
21581;SDS011;10952;50.836;4.348;2022-12-18T10:58:27;18.10;;;9.03;;
21581;SDS011;10952;50.836;4.348;2022-12-18T11:01:08;22.17;;;10.93;;
21581;SDS011;10952;50.836;4.348;2022-12-18T11:03:39;20.50;;;9.33;;
21581;SDS011;10952;50.836;4.348;2022-12-18T11:06:13;19.07;;;10.43;;
21581;SDS011;10952;50.836;4.348;2022-12-18T11:08:41;19.80;;;10.53;;
21581;SDS011;10952;50.836;4.348;2022-12-18T11:11:31;18.57;;;10.47;;
21581;SDS011;10952;50.836;4.348;2022-12-18T11:14:01;18.83;;;9.50;;
21581;SDS011;10952;50.836;4.348;2022-12-18T11:16:33;18.50;;;10.43;;
21581;SDS011;10952;50.836;4.348;2022-12-18T11:19:21;24.27;;;10.93;;
21581;SDS011;10952;50.836;4.348;2022-12-18T11:21:57;21.67;;;11.57;;
21581;SDS011;10952;50.836;4.348;2022-12-18T11:24:33;20.73;;;11.23;;
21581;SDS011;10952;50.836;4.348;2022-12-18T11:27:05;22.43;;;11.90;;
21581;SDS011;10952;50.836;4.348;2022-12-18T11:29:41;26.40;;;11.30;;
21581;SDS011;10952;50.836;4.348;2022-12-18T11:34:53;18.20;;;10.00;;
21581;SDS011;10952;50.836;4.348;2022-12-18T11:37:39;20.57;;;10.50;;
21581;SDS011;10952;50.836;4.348;2022-12-18T11:40:14;21.47;;;10.50;;
21581;SDS011;10952;50.836;4.348;2022-12-18T11:43:15;25.77;;;10.97;;
21581;SDS011;10952;50.836;4.348;2022-12-18T11:45:51;18.67;;;9.13;;
21581;SDS011;10952;50.836;4.348;2022-12-18T11:48:22;30.87;;;14.67;;
21581;SDS011;10952;50.836;4.348;2022-12-18T11:50:52;21.00;;;11.23;;
21581;SDS011;10952;50.836;4.348;2022-12-18T11:53:20;29.93;;;11.57;;
21581;SDS011;10952;50.836;4.348;2022-12-18T11:56:01;25.67;;;11.40;;
21581;SDS011;10952;50.836;4.348;2022-12-18T12:07:38;20.77;;;10.80;;
21581;SDS011;10952;50.836;4.348;2022-12-18T12:11:27;21.43;;;10.60;;
21581;SDS011;10952;50.836;4.348;2022-12-18T12:13:51;23.60;;;11.43;;
21581;SDS011;10952;50.836;4.348;2022-12-18T12:21:41;27.40;;;12.47;;
21581;SDS011;10952;50.836;4.348;2022-12-18T12:24:14;26.03;;;12.53;;
21581;SDS011;10952;50.836;4.348;2022-12-18T12:35:29;34.47;;;13.63;;
21581;SDS011;10952;50.836;4.348;2022-12-18T12:41:31;23.47;;;12.57;;
21581;SDS011;10952;50.836;4.348;2022-12-18T12:44:28;23.13;;;10.87;;
21581;SDS011;10952;50.836;4.348;2022-12-18T12:49:57;22.47;;;11.63;;
21581;SDS011;10952;50.836;4.348;2022-12-18T12:52:35;24.60;;;12.27;;
21581;SDS011;10952;50.836;4.348;2022-12-18T12:55:24;27.73;;;12.50;;
21581;SDS011;10952;50.836;4.348;2022-12-18T13:01:58;28.40;;;12.97;;
21581;SDS011;10952;50.836;4.348;2022-12-18T13:10:37;31.50;;;14.10;;
21581;SDS011;10952;50.836;4.348;2022-12-18T13:16:20;26.77;;;12.73;;
21581;SDS011;10952;50.836;4.348;2022-12-18T13:21:55;31.10;;;14.60;;
21581;SDS011;10952;50.836;4.348;2022-12-18T13:24:39;29.30;;;14.97;;
21581;SDS011;10952;50.836;4.348;2022-12-18T13:35:50;27.90;;;13.97;;
21581;SDS011;10952;50.836;4.348;2022-12-18T13:38:34;33.40;;;15.17;;
21581;SDS011;10952;50.836;4.348;2022-12-18T13:51:55;35.47;;;15.87;;
21581;SDS011;10952;50.836;4.348;2022-12-18T13:57:25;34.90;;;16.43;;
21581;SDS011;10952;50.836;4.348;2022-12-18T13:59:54;29.40;;;14.07;;
21581;SDS011;10952;50.836;4.348;2022-12-18T14:02:27;37.93;;;15.33;;
21581;SDS011;10952;50.836;4.348;2022-12-18T14:04:53;31.07;;;15.53;;
21581;SDS011;10952;50.836;4.348;2022-12-18T14:07:23;34.23;;;16.53;;
21581;SDS011;10952;50.836;4.348;2022-12-18T14:09:58;40.33;;;17.77;;
21581;SDS011;10952;50.836;4.348;2022-12-18T14:12:26;37.33;;;17.40;;
21581;SDS011;10952;50.836;4.348;2022-12-18T14:17:54;31.50;;;15.60;;
21581;SDS011;10952;50.836;4.348;2022-12-18T14:20:27;40.83;;;17.53;;
21581;SDS011;10952;50.836;4.348;2022-12-18T14:22:59;33.90;;;16.27;;
21581;SDS011;10952;50.836;4.348;2022-12-18T14:25:27;37.27;;;17.87;;
21581;SDS011;10952;50.836;4.348;2022-12-18T14:30:38;33.97;;;17.50;;
21581;SDS011;10952;50.836;4.348;2022-12-18T14:33:21;37.13;;;17.83;;
21581;SDS011;10952;50.836;4.348;2022-12-18T14:36:00;34.10;;;16.83;;
21581;SDS011;10952;50.836;4.348;2022-12-18T14:38:30;36.40;;;17.63;;
21581;SDS011;10952;50.836;4.348;2022-12-18T14:41:12;36.40;;;17.27;;
21581;SDS011;10952;50.836;4.348;2022-12-18T14:43:40;33.53;;;16.67;;
21581;SDS011;10952;50.836;4.348;2022-12-18T14:46:28;39.83;;;16.17;;
21581;SDS011;10952;50.836;4.348;2022-12-18T14:49:15;36.23;;;16.80;;
21581;SDS011;10952;50.836;4.348;2022-12-18T14:52:04;35.77;;;16.50;;
21581;SDS011;10952;50.836;4.348;2022-12-18T14:54:33;41.27;;;17.83;;
21581;SDS011;10952;50.836;4.348;2022-12-18T14:57:03;40.10;;;17.27;;
21581;SDS011;10952;50.836;4.348;2022-12-18T14:59:39;38.83;;;17.87;;
21581;SDS011;10952;50.836;4.348;2022-12-18T15:02:18;47.67;;;17.60;;
21581;SDS011;10952;50.836;4.348;2022-12-18T15:07:50;37.37;;;17.23;;
21581;SDS011;10952;50.836;4.348;2022-12-18T15:10:22;36.40;;;17.67;;
21581;SDS011;10952;50.836;4.348;2022-12-18T15:18:01;39.00;;;17.90;;
21581;SDS011;10952;50.836;4.348;2022-12-18T15:26:14;40.30;;;17.97;;
21581;SDS011;10952;50.836;4.348;2022-12-18T15:28:51;40.10;;;17.77;;
21581;SDS011;10952;50.836;4.348;2022-12-18T15:31:32;39.23;;;18.10;;
21581;SDS011;10952;50.836;4.348;2022-12-18T15:34:10;40.10;;;18.30;;
21581;SDS011;10952;50.836;4.348;2022-12-18T15:36:38;44.23;;;17.13;;
21581;SDS011;10952;50.836;4.348;2022-12-18T15:39:05;43.30;;;18.80;;
21581;SDS011;10952;50.836;4.348;2022-12-18T15:41:32;36.10;;;17.37;;
21581;SDS011;10952;50.836;4.348;2022-12-18T15:43:58;36.77;;;17.37;;
21581;SDS011;10952;50.836;4.348;2022-12-18T15:46:26;37.53;;;17.87;;
21581;SDS011;10952;50.836;4.348;2022-12-18T15:49:02;39.37;;;17.57;;
21581;SDS011;10952;50.836;4.348;2022-12-18T15:51:35;39.70;;;17.90;;
21581;SDS011;10952;50.836;4.348;2022-12-18T15:54:19;37.77;;;18.00;;
21581;SDS011;10952;50.836;4.348;2022-12-18T15:59:55;36.00;;;17.53;;
21581;SDS011;10952;50.836;4.348;2022-12-18T16:02:36;44.70;;;18.80;;
21581;SDS011;10952;50.836;4.348;2022-12-18T16:05:09;39.67;;;15.93;;
21581;SDS011;10952;50.836;4.348;2022-12-18T16:10:42;35.83;;;15.63;;
21581;SDS011;10952;50.836;4.348;2022-12-18T16:13:16;40.03;;;17.63;;
21581;SDS011;10952;50.836;4.348;2022-12-18T16:15:46;37.70;;;17.03;;
21581;SDS011;10952;50.836;4.348;2022-12-18T16:18:18;35.40;;;16.17;;
21581;SDS011;10952;50.836;4.348;2022-12-18T16:23:16;39.33;;;18.00;;
21581;SDS011;10952;50.836;4.348;2022-12-18T16:25:42;36.13;;;16.57;;
21581;SDS011;10952;50.836;4.348;2022-12-18T16:30:48;37.63;;;16.70;;
21581;SDS011;10952;50.836;4.348;2022-12-18T16:35:50;45.67;;;16.67;;
21581;SDS011;10952;50.836;4.348;2022-12-18T16:38:16;36.30;;;16.20;;
21581;SDS011;10952;50.836;4.348;2022-12-18T16:40:42;38.33;;;16.10;;
21581;SDS011;10952;50.836;4.348;2022-12-18T16:43:31;34.03;;;15.80;;
21581;SDS011;10952;50.836;4.348;2022-12-18T16:46:00;35.47;;;17.00;;
21581;SDS011;10952;50.836;4.348;2022-12-18T16:48:25;34.87;;;16.60;;
21581;SDS011;10952;50.836;4.348;2022-12-18T16:50:53;34.97;;;16.10;;
21581;SDS011;10952;50.836;4.348;2022-12-18T16:56:01;34.10;;;15.37;;
21581;SDS011;10952;50.836;4.348;2022-12-18T16:58:27;35.00;;;17.10;;
21581;SDS011;10952;50.836;4.348;2022-12-18T17:00:53;35.80;;;16.80;;
21581;SDS011;10952;50.836;4.348;2022-12-18T17:03:23;36.83;;;18.67;;
21581;SDS011;10952;50.836;4.348;2022-12-18T17:05:49;32.53;;;15.87;;
21581;SDS011;10952;50.836;4.348;2022-12-18T17:08:16;34.63;;;15.93;;
21581;SDS011;10952;50.836;4.348;2022-12-18T17:10:47;34.67;;;15.47;;
21581;SDS011;10952;50.836;4.348;2022-12-18T17:13:16;35.03;;;15.50;;
21581;SDS011;10952;50.836;4.348;2022-12-18T17:15:43;34.93;;;15.70;;
21581;SDS011;10952;50.836;4.348;2022-12-18T17:18:11;34.47;;;15.90;;
21581;SDS011;10952;50.836;4.348;2022-12-18T17:20:37;32.63;;;15.30;;
21581;SDS011;10952;50.836;4.348;2022-12-18T17:23:03;36.87;;;16.77;;
21581;SDS011;10952;50.836;4.348;2022-12-18T17:25:32;33.03;;;14.27;;
21581;SDS011;10952;50.836;4.348;2022-12-18T17:28:01;35.03;;;15.57;;
21581;SDS011;10952;50.836;4.348;2022-12-18T17:30:30;35.30;;;15.83;;
21581;SDS011;10952;50.836;4.348;2022-12-18T17:32:58;35.07;;;15.60;;
21581;SDS011;10952;50.836;4.348;2022-12-18T17:35:24;34.30;;;16.03;;
21581;SDS011;10952;50.836;4.348;2022-12-18T17:37:51;35.07;;;16.47;;
21581;SDS011;10952;50.836;4.348;2022-12-18T17:42:53;37.23;;;16.43;;
21581;SDS011;10952;50.836;4.348;2022-12-18T17:45:20;39.03;;;17.17;;
21581;SDS011;10952;50.836;4.348;2022-12-18T17:47:49;35.03;;;15.30;;
21581;SDS011;10952;50.836;4.348;2022-12-18T17:50:14;38.90;;;16.20;;
21581;SDS011;10952;50.836;4.348;2022-12-18T17:55:12;31.80;;;15.93;;
21581;SDS011;10952;50.836;4.348;2022-12-18T17:57:40;31.90;;;15.37;;
21581;SDS011;10952;50.836;4.348;2022-12-18T18:00:06;35.60;;;16.17;;
21581;SDS011;10952;50.836;4.348;2022-12-18T18:02:33;33.53;;;15.87;;
21581;SDS011;10952;50.836;4.348;2022-12-18T18:04:59;37.53;;;17.33;;
21581;SDS011;10952;50.836;4.348;2022-12-18T18:07:25;41.67;;;17.87;;
21581;SDS011;10952;50.836;4.348;2022-12-18T18:09:58;37.80;;;17.53;;
21581;SDS011;10952;50.836;4.348;2022-12-18T18:12:27;41.67;;;18.60;;
21581;SDS011;10952;50.836;4.348;2022-12-18T18:15:15;38.93;;;16.80;;
21581;SDS011;10952;50.836;4.348;2022-12-18T18:17:41;38.50;;;16.30;;
21581;SDS011;10952;50.836;4.348;2022-12-18T18:20:13;38.90;;;16.83;;
21581;SDS011;10952;50.836;4.348;2022-12-18T18:22:42;34.80;;;16.13;;
21581;SDS011;10952;50.836;4.348;2022-12-18T18:25:08;36.63;;;16.87;;
21581;SDS011;10952;50.836;4.348;2022-12-18T18:27:41;42.80;;;16.97;;
21581;SDS011;10952;50.836;4.348;2022-12-18T18:30:12;40.27;;;16.57;;
21581;SDS011;10952;50.836;4.348;2022-12-18T18:32:41;39.40;;;16.73;;
21581;SDS011;10952;50.836;4.348;2022-12-18T18:35:08;40.20;;;17.60;;
21581;SDS011;10952;50.836;4.348;2022-12-18T18:37:41;34.47;;;15.80;;
21581;SDS011;10952;50.836;4.348;2022-12-18T18:53:07;44.70;;;18.83;;
21581;SDS011;10952;50.836;4.348;2022-12-18T18:58:07;42.47;;;18.07;;
21581;SDS011;10952;50.836;4.348;2022-12-18T19:00:36;39.03;;;17.87;;
21581;SDS011;10952;50.836;4.348;2022-12-18T19:03:04;35.40;;;16.37;;
21581;SDS011;10952;50.836;4.348;2022-12-18T19:05:35;42.90;;;19.63;;